Goshen, New Jersey
Current Conditions -  °F | °C
As of 1:35 PM on Monday 26 Jan 2015 (Local Time) from KWWD Reporting Station
Overcast Overcast  
Wind Chill: 30°   Ceiling: 900
Heat Index: 39°   Visibility: 4mi
Dew Point: 34°   Wind: 18mph
Humidity: 81%   Direction: 40°NE
Pressure: 29.65"   Gusts: 29mph
Location:  39.14°N, 74.85°W
Report Text: KWWD 261835Z AUTO 04016G25KT 4SM BKN009 OVC016 04/01 A2965 RMK AO1 P0005
Loading
Personal Weather Stations






























Interactive Weather Map New forecast layout! Learn more

10-Day Weather Forecast

Advertisements
Track Severe Weather on mobile